ADDS TAF Board INFO
 
 

IDs: Format: Expanded Condensed

KJFK - New York/Kennedy Int, NY, US

Issued at 0830 UTC 27 Aug 2014
Time0951Z27/11Z27/12Z27/13Z27/14Z27/15Z27/16Z27/17Z27/18Z27/19Z27/20Z27/21Z27/22Z27/23Z
TypeOBSPRVLPRVLPRVLPRVLPRVLPRVLPRVLPRVLPRVLPRVLPRVLPRVLPRVL
Vis10>6>6>6>6>6>6>6>6>6>6>6>6>6
Cig----------------------------
CoverFEWFEWFEWSKCSKCSKCSKCSCTSCTSCTSCTSCTSCTSCT
FltCat--VFRVFRVFRVFRVFRVFRVFRVFRVFRVFRVFRVFRVFR
Wx----------------------------
WDir240240240210210210210200200200200200200200
WSpd555777710101010101010
WGst----------------------------
R04/22
XWnd222-0-0-0-0-2-2-2-2-2-2-2
HWnd-4-4-4-7-7-7-7-10-10-10-10-10-10-10
R13/31
XWnd-4-4-4-7-7-7-7-10-10-10-10-10-10-10
HWnd-2-2-200002222222
Raw TAF
KJFK 270830Z 2709/2812 24005KT P6SM FEW250
  FM271300 21007KT P6SM SKC
  FM271700 20010KT P6SM SCT040
  FM280300 21005KT P6SM SCT040 BKN130
  FM280600 32010KT P6SM SCT040 SCT100


Raw METAR
KJFK 270951Z 24005KT 10SM FEW250 20/17 A3004 RMK AO2 SLP171 T02000167 $

TAF Board Legend

Hazard Green Yellow Red Magenta
Visibility (sm) >5 >2.99 >0.99 <=0.99
Ceiling (100 ft) >30 >9.99 >4.99 <=4.99
Wind Speed (kt) <10 <20 <30 >=30
Wind Gust (kt) <10 <20 <30 >=30
Weather No Wx Reported Light precipitation Moderate precipitation Heavy precipitation
Flight Category VFR MVFR IFR LIFR

Page loaded:  10:51 UTC  |   03:51 AM Pacific  |   04:51 AM Mountain  |   05:51 AM Central  |   06:51 AM Eastern

 

ADVISORIES

FORECASTS

FORECASTS

OBSERVATIONS

USER TOOLS

ABOUT US